createdAt,value
2017-09-01T00:00:57.919Z,0
2017-09-01T00:01:58.232Z,0
2017-09-01T00:02:57.514Z,0
2017-09-01T00:03:58.376Z,0
2017-09-01T00:04:58.382Z,0
2017-09-01T00:05:57.586Z,0
2017-09-01T00:06:57.720Z,0
2017-09-01T00:07:58.374Z,0
2017-09-01T00:08:58.070Z,0
2017-09-01T00:09:58.091Z,0
2017-09-01T00:10:58.235Z,0
2017-09-01T00:11:57.785Z,0
2017-09-01T00:12:58.445Z,0
2017-09-01T00:13:58.123Z,0
2017-09-01T00:14:58.531Z,0
2017-09-01T00:15:58.120Z,0
2017-09-01T00:17:10.594Z,0
2017-09-01T00:17:57.948Z,0
2017-09-01T00:18:57.948Z,0
2017-09-01T00:19:58.232Z,0
2017-09-01T00:20:58.264Z,0
2017-09-01T00:21:57.958Z,0
2017-09-01T00:22:58.354Z,0
2017-09-01T00:23:58.339Z,0
2017-09-01T00:24:58.016Z,0
2017-09-01T00:25:58.359Z,0
2017-09-01T00:26:58.397Z,0
2017-09-01T00:27:58.422Z,0
2017-09-01T00:28:58.109Z,0
2017-09-01T00:29:58.458Z,0
2017-09-01T00:30:58.477Z,0
2017-09-01T00:31:58.496Z,0
2017-09-01T00:32:58.519Z,0
2017-09-01T00:33:58.547Z,0
2017-09-01T00:34:58.240Z,0
2017-09-01T00:35:58.261Z,0
2017-09-01T00:36:58.289Z,0
2017-09-01T00:37:58.319Z,0
2017-09-01T00:38:58.977Z,0
2017-09-01T00:39:58.349Z,0
2017-09-01T00:40:58.700Z,0
2017-09-01T00:41:58.400Z,0
2017-09-01T00:42:58.748Z,0
2017-09-01T00:43:58.124Z,0
2017-09-01T00:44:58.469Z,0
2017-09-01T00:45:59.138Z,0
2017-09-01T00:46:59.167Z,0
2017-09-01T00:47:58.944Z,0
2017-09-01T00:48:58.948Z,0
2017-09-01T00:49:58.643Z,0
2017-09-01T00:50:59.276Z,0
2017-09-01T00:51:58.953Z,0
2017-09-01T00:52:58.969Z,0
2017-09-01T00:53:58.998Z,0
2017-09-01T00:54:59.338Z,0
2017-09-01T00:55:58.805Z,0
2017-09-01T00:56:59.054Z,0
2017-09-01T00:57:59.084Z,0
2017-09-01T00:58:58.803Z,0
2017-09-01T00:59:58.476Z,0
2017-09-01T01:00:59.148Z,0
2017-09-01T01:01:59.495Z,0
2017-09-01T01:02:58.871Z,0
2017-09-01T01:03:58.565Z,0
2017-09-01T01:04:59.675Z,0
2017-09-01T01:05:59.258Z,0
2017-09-01T01:06:58.966Z,0
2017-09-01T01:07:59.306Z,0
2017-09-01T01:08:59.681Z,0
2017-09-01T01:09:59.224Z,0
2017-09-01T01:10:59.045Z,0
2017-09-01T01:11:59.073Z,0
2017-09-01T01:12:59.092Z,0
2017-09-01T01:13:59.760Z,0
2017-09-01T01:14:59.457Z,0
2017-09-01T01:15:59.484Z,0
2017-09-01T01:16:59.533Z,0
2017-09-01T01:18:00.120Z,0
2017-09-01T01:18:59.454Z,0
2017-09-01T01:19:59.776Z,0
2017-09-01T01:20:59.791Z,0
2017-09-01T01:21:59.464Z,0
2017-09-01T01:22:59.835Z,0
2017-09-01T01:23:59.667Z,0
2017-09-01T01:24:59.800Z,0
2017-09-01T01:25:59.829Z,0
2017-09-01T01:26:59.825Z,0
2017-09-01T01:27:59.431Z,0
2017-09-01T01:28:59.942Z,0
2017-09-01T01:30:00.265Z,0
2017-09-01T01:30:59.948Z,0
2017-09-01T01:31:59.959Z,0
2017-09-01T01:32:59.947Z,0
2017-09-01T01:33:59.645Z,0
2017-09-01T01:34:59.982Z,0
2017-09-01T01:36:00.128Z,0
2017-09-01T01:37:00.014Z,0
2017-09-01T01:38:00.029Z,0
2017-09-01T01:39:00.338Z,0
2017-09-01T01:40:00.123Z,0
2017-09-01T01:40:59.806Z,0
2017-09-01T01:42:00.382Z,0
2017-09-01T01:42:59.835Z,0
2017-09-01T01:44:00.268Z,0
2017-09-01T01:44:59.476Z,0
2017-09-01T01:46:00.163Z,0
2017-09-01T01:46:59.929Z,0
2017-09-01T01:47:59.636Z,0
2017-09-01T01:48:59.978Z,0
2017-09-01T01:50:00.128Z,0
2017-09-01T01:51:00.340Z,0
2017-09-01T01:52:00.134Z,0
2017-09-01T01:53:00.626Z,0
2017-09-01T01:54:00.138Z,0
2017-09-01T01:55:00.671Z,0
2017-09-01T01:56:00.376Z,0
2017-09-01T01:57:00.546Z,0
2017-09-01T01:58:00.738Z,0
2017-09-01T01:59:00.272Z,0
2017-09-01T02:00:00.791Z,0
2017-09-01T02:01:00.808Z,0
2017-09-01T02:02:00.837Z,0
2017-09-01T02:03:00.527Z,0
2017-09-01T02:04:00.230Z,0
2017-09-01T02:05:00.893Z,0
2017-09-01T02:06:00.265Z,0
2017-09-01T02:07:00.289Z,0
2017-09-01T02:08:00.951Z,0
2017-09-01T02:09:00.749Z,0
2017-09-01T02:10:00.728Z,0
2017-09-01T02:11:00.056Z,0
2017-09-01T02:12:00.407Z,0
2017-09-01T02:13:01.075Z,0
2017-09-01T02:14:00.838Z,0
2017-09-01T02:15:00.563Z,0
2017-09-01T02:16:00.863Z,0
2017-09-01T02:17:00.561Z,0
2017-09-01T02:18:00.880Z,0
2017-09-01T02:19:00.569Z,0
2017-09-01T02:20:01.222Z,0
2017-09-01T02:21:00.699Z,0
2017-09-01T02:22:00.954Z,0
2017-09-01T02:23:01.299Z,0
2017-09-01T02:24:01.313Z,0
2017-09-01T02:25:01.012Z,0
2017-09-01T02:26:01.031Z,0
2017-09-01T02:27:01.073Z,0
2017-09-01T02:28:00.749Z,0
2017-09-01T02:29:01.432Z,0
2017-09-01T02:30:01.118Z,0
2017-09-01T02:31:01.152Z,0
2017-09-01T02:32:01.480Z,0
2017-09-01T02:33:00.857Z,0
2017-09-01T02:34:00.892Z,0
2017-09-01T02:35:01.662Z,0
2017-09-01T02:36:01.359Z,0
2017-09-01T02:37:01.039Z,0
2017-09-01T02:38:01.510Z,0
2017-09-01T02:39:01.193Z,0
2017-09-01T02:40:01.205Z,0
2017-09-01T02:41:01.519Z,0
2017-09-01T02:42:01.412Z,0
2017-09-01T02:43:00.879Z,0
2017-09-01T02:44:01.477Z,0
2017-09-01T02:45:01.652Z,0
2017-09-01T02:46:01.148Z,0
2017-09-01T02:47:01.496Z,0
2017-09-01T02:48:01.511Z,0
2017-09-01T02:49:01.227Z,0
2017-09-01T02:50:01.559Z,0
2017-09-01T02:51:01.910Z,0
2017-09-01T02:52:01.358Z,0
2017-09-01T02:53:01.944Z,0
2017-09-01T02:54:01.975Z,0
2017-09-01T02:55:01.412Z,0
2017-09-01T02:56:02.012Z,0
2017-09-01T02:57:02.034Z,0
2017-09-01T02:58:01.420Z,0
2017-09-01T02:59:01.432Z,0
2017-09-01T03:00:02.219Z,0
2017-09-01T03:01:02.024Z,0
2017-09-01T03:02:02.027Z,0
2017-09-01T03:03:02.028Z,0
2017-09-01T03:04:02.298Z,0
2017-09-01T03:05:02.245Z,0
2017-09-01T03:06:02.033Z,0
2017-09-01T03:07:02.033Z,0
2017-09-01T03:08:01.963Z,0
2017-09-01T03:09:02.165Z,0
2017-09-01T03:10:02.179Z,0
2017-09-01T03:11:02.017Z,0
2017-09-01T03:12:02.178Z,0
2017-09-01T03:13:01.509Z,0
2017-09-01T03:14:01.530Z,0
2017-09-01T03:15:02.178Z,0
2017-09-01T03:16:02.133Z,0
2017-09-01T03:17:01.820Z,0
2017-09-01T03:18:02.167Z,0
2017-09-01T03:19:02.204Z,0
2017-09-01T03:20:01.890Z,0
2017-09-01T03:21:02.571Z,0
2017-09-01T03:22:02.394Z,0
2017-09-01T03:23:02.287Z,0
2017-09-01T03:24:02.630Z,0
2017-09-01T03:25:02.641Z,0
2017-09-01T03:26:02.667Z,0
2017-09-01T03:27:02.368Z,0
2017-09-01T03:28:02.719Z,0
2017-09-01T03:29:02.421Z,0
2017-09-01T03:30:02.119Z,0
2017-09-01T03:31:02.781Z,0
2017-09-01T03:32:02.493Z,0
2017-09-01T03:33:02.496Z,0
2017-09-01T03:34:02.523Z,0
2017-09-01T03:35:02.217Z,0
2017-09-01T03:36:01.917Z,0
2017-09-01T03:37:02.262Z,0
2017-09-01T03:38:02.299Z,0
2017-09-01T03:39:02.306Z,0
2017-09-01T03:40:02.467Z,0
2017-09-01T03:41:02.762Z,0
2017-09-01T03:42:03.107Z,0
2017-09-01T03:43:03.111Z,0
2017-09-01T03:44:02.813Z,0
2017-09-01T03:45:03.173Z,0
2017-09-01T03:46:02.793Z,0
2017-09-01T03:47:03.141Z,0
2017-09-01T03:48:02.497Z,0
2017-09-01T03:49:02.529Z,0
2017-09-01T03:50:03.285Z,0
2017-09-01T03:51:02.887Z,0
2017-09-01T03:52:02.584Z,0
2017-09-01T03:53:03.412Z,0
2017-09-01T03:54:02.334Z,0
2017-09-01T03:55:02.328Z,0
2017-09-01T03:56:02.672Z,0
2017-09-01T03:57:03.405Z,0
2017-09-01T03:58:03.056Z,0
2017-09-01T03:59:03.075Z,0
2017-09-01T04:00:02.806Z,0
2017-09-01T04:01:02.790Z,0
2017-09-01T04:02:03.140Z,0
2017-09-01T04:03:03.351Z,0
2017-09-01T04:04:03.192Z,0
2017-09-01T04:05:03.192Z,0
2017-09-01T04:06:02.898Z,0
2017-09-01T04:07:03.235Z,4
2017-09-01T04:08:03.271Z,4
2017-09-01T04:09:03.607Z,0
2017-09-01T04:10:02.979Z,4
2017-09-01T04:11:03.653Z,4
2017-09-01T04:12:03.032Z,4
2017-09-01T04:13:03.042Z,4
2017-09-01T04:14:03.075Z,4
2017-09-01T04:15:03.727Z,4
2017-09-01T04:16:03.428Z,8
2017-09-01T04:17:03.981Z,8
2017-09-01T04:18:02.835Z,8
2017-09-01T04:19:03.174Z,12
2017-09-01T04:20:03.621Z,12
2017-09-01T04:21:03.331Z,8
2017-09-01T04:22:03.356Z,12
2017-09-01T04:23:03.905Z,16
2017-09-01T04:24:02.986Z,16
2017-09-01T04:25:03.663Z,16
2017-09-01T04:26:03.981Z,20
2017-09-01T04:27:03.993Z,20
2017-09-01T04:28:03.703Z,24
2017-09-01T04:29:03.492Z,24
2017-09-01T04:30:04.058Z,32
2017-09-01T04:31:03.755Z,32
2017-09-01T04:32:04.092Z,40
2017-09-01T04:33:03.153Z,40
2017-09-01T04:34:03.495Z,48
2017-09-01T04:35:03.514Z,56
2017-09-01T04:36:03.863Z,60
2017-09-01T04:37:03.565Z,56
2017-09-01T04:38:03.920Z,56
2017-09-01T04:39:04.260Z,56
2017-09-01T04:40:04.273Z,56
2017-09-01T04:41:03.969Z,60
2017-09-01T04:42:03.496Z,60
2017-09-01T04:43:04.353Z,68
2017-09-01T04:44:03.716Z,72
2017-09-01T04:45:04.059Z,80
2017-09-01T04:46:03.755Z,80
2017-09-01T04:47:04.105Z,88
2017-09-01T04:48:03.796Z,96
2017-09-01T04:49:04.162Z,100
2017-09-01T04:50:04.497Z,104
2017-09-01T04:51:04.517Z,116
2017-09-01T04:52:04.534Z,128
2017-09-01T04:53:04.269Z,148
2017-09-01T04:54:03.927Z,156
2017-09-01T04:55:04.601Z,172
2017-09-01T04:56:04.482Z,180
2017-09-01T04:57:04.190Z,192
2017-09-01T04:58:04.825Z,208
2017-09-01T04:59:04.176Z,228
2017-09-01T05:00:04.176Z,244
2017-09-01T05:01:04.499Z,244
2017-09-01T05:02:04.327Z,248
2017-09-01T05:03:04.959Z,244
2017-09-01T05:04:04.150Z,244
2017-09-01T05:05:04.596Z,240
2017-09-01T05:06:05.039Z,236
2017-09-01T05:07:05.046Z,236
2017-09-01T05:08:04.609Z,244
2017-09-01T05:09:03.932Z,260
2017-09-01T05:10:05.053Z,268
2017-09-01T05:11:05.054Z,284
2017-09-01T05:12:04.412Z,292
2017-09-01T05:13:04.767Z,308
2017-09-01T05:14:04.900Z,320
2017-09-01T05:15:04.772Z,328
2017-09-01T05:16:05.128Z,344
2017-09-01T05:17:04.763Z,352
2017-09-01T05:18:04.934Z,364
2017-09-01T05:19:05.142Z,376
2017-09-01T05:20:04.612Z,384
2017-09-01T05:21:04.760Z,400
2017-09-01T05:22:05.272Z,420
2017-09-01T05:23:04.658Z,448
2017-09-01T05:24:04.657Z,496
2017-09-01T05:25:04.852Z,544
2017-09-01T05:26:05.046Z,600
2017-09-01T05:27:05.284Z,648
2017-09-01T05:28:05.307Z,692
2017-09-01T05:29:05.012Z,716
2017-09-01T05:30:05.023Z,720
2017-09-01T05:31:05.055Z,720
2017-09-01T05:32:05.080Z,724
2017-09-01T05:33:05.524Z,728
2017-09-01T05:34:04.793Z,732
2017-09-01T05:35:05.523Z,728
2017-09-01T05:36:05.155Z,712
2017-09-01T05:37:04.855Z,700
2017-09-01T05:38:05.527Z,684
2017-09-01T05:39:05.220Z,652
2017-09-01T05:40:05.266Z,628
2017-09-01T05:41:04.948Z,604
2017-09-01T05:42:04.967Z,572
2017-09-01T05:43:05.859Z,540
2017-09-01T05:44:05.416Z,512
2017-09-01T05:45:05.871Z,500
2017-09-01T05:46:05.904Z,492
2017-09-01T05:47:05.430Z,496
2017-09-01T05:48:05.540Z,504
2017-09-01T05:49:05.761Z,512
2017-09-01T05:50:05.475Z,524
2017-09-01T05:51:05.564Z,544
2017-09-01T05:52:05.274Z,556
2017-09-01T05:53:05.571Z,576
2017-09-01T05:54:05.249Z,596
2017-09-01T05:55:05.248Z,608
2017-09-01T05:56:05.270Z,616
2017-09-01T05:57:04.959Z,616
2017-09-01T05:58:04.980Z,616
2017-09-01T05:59:05.331Z,632
2017-09-01T06:00:06.016Z,656
2017-09-01T06:01:05.696Z,680
2017-09-01T06:02:05.401Z,712
2017-09-01T06:03:05.412Z,740
2017-09-01T06:04:05.768Z,776
2017-09-01T06:05:05.138Z,804
2017-09-01T06:06:05.819Z,824
2017-09-01T06:07:06.253Z,844
2017-09-01T06:08:06.355Z,864
2017-09-01T06:09:05.980Z,880
2017-09-01T06:10:05.979Z,892
2017-09-01T06:11:06.109Z,904
2017-09-01T06:12:05.328Z,908
2017-09-01T06:13:06.123Z,904
2017-09-01T06:14:05.448Z,900
2017-09-01T06:15:06.443Z,888
2017-09-01T06:16:06.139Z,880
2017-09-01T06:17:06.115Z,872
2017-09-01T06:18:06.458Z,844
2017-09-01T06:19:06.319Z,812
2017-09-01T06:20:06.301Z,780
2017-09-01T06:21:06.518Z,760
2017-09-01T06:22:06.515Z,756
2017-09-01T06:23:05.982Z,772
2017-09-01T06:24:05.696Z,784
2017-09-01T06:25:05.963Z,800
2017-09-01T06:26:05.908Z,816
2017-09-01T06:27:06.259Z,836
2017-09-01T06:28:06.298Z,848
2017-09-01T06:29:06.011Z,852
2017-09-01T06:30:06.649Z,868
2017-09-01T06:31:06.348Z,888
2017-09-01T06:32:06.382Z,908
2017-09-01T06:33:06.385Z,920
2017-09-01T06:34:06.085Z,928
2017-09-01T06:35:06.758Z,920
2017-09-01T06:36:06.455Z,884
2017-09-01T06:37:06.799Z,848
2017-09-01T06:38:06.499Z,824
2017-09-01T06:39:06.197Z,816
2017-09-01T06:40:06.548Z,824
2017-09-01T06:41:06.237Z,840
2017-09-01T06:42:06.294Z,864
2017-09-01T06:43:06.932Z,880
2017-09-01T06:44:06.624Z,888
2017-09-01T06:45:06.984Z,892
2017-09-01T06:46:06.032Z,880
2017-09-01T06:47:06.370Z,868
2017-09-01T06:48:06.430Z,860
2017-09-01T06:49:06.752Z,848
2017-09-01T06:50:06.443Z,840
2017-09-01T06:51:06.463Z,840
2017-09-01T06:52:07.136Z,852
2017-09-01T06:53:06.517Z,872
2017-09-01T06:54:06.850Z,904
2017-09-01T06:55:06.559Z,948
2017-09-01T06:56:07.226Z,988
2017-09-01T06:57:06.923Z,1036
2017-09-01T06:58:06.958Z,1072
2017-09-01T06:59:06.976Z,1108
2017-09-01T07:00:06.987Z,1140
2017-09-01T07:01:06.675Z,1176
2017-09-01T07:02:06.696Z,1204
2017-09-01T07:03:07.375Z,1212
2017-09-01T07:04:06.558Z,1216
2017-09-01T07:05:07.423Z,1224
2017-09-01T07:06:07.435Z,1244
2017-09-01T07:07:07.131Z,1268
2017-09-01T07:08:07.154Z,1292
2017-09-01T07:09:07.172Z,1308
2017-09-01T07:10:06.898Z,1316
2017-09-01T07:11:07.035Z,1308
2017-09-01T07:12:07.541Z,1304
2017-09-01T07:13:07.362Z,1308
2017-09-01T07:14:07.288Z,1312
2017-09-01T07:15:07.723Z,1308
2017-09-01T07:16:07.212Z,1296
2017-09-01T07:17:07.767Z,1272
2017-09-01T07:18:07.937Z,1256
2017-09-01T07:19:07.520Z,1244
2017-09-01T07:20:06.798Z,1236
2017-09-01T07:21:07.445Z,1220
2017-09-01T07:22:07.157Z,1212
2017-09-01T07:23:07.612Z,1216
2017-09-01T07:24:07.701Z,1232
2017-09-01T07:25:07.903Z,1268
2017-09-01T07:26:07.511Z,1336
2017-09-01T07:27:07.269Z,1492
2017-09-01T07:28:06.972Z,1688
2017-09-01T07:29:07.307Z,1856
2017-09-01T07:30:06.995Z,1952
2017-09-01T07:31:07.023Z,1976
2017-09-01T07:32:07.769Z,1896
2017-09-01T07:33:07.405Z,1792
2017-09-01T07:34:07.752Z,1772
2017-09-01T07:35:07.763Z,1772
2017-09-01T07:36:07.902Z,1832
2017-09-01T07:37:07.484Z,1900
2017-09-01T07:38:07.827Z,1948
2017-09-01T07:39:07.849Z,1972
2017-09-01T07:40:07.898Z,1992
2017-09-01T07:41:07.889Z,1992
2017-09-01T07:42:07.615Z,1964
2017-09-01T07:43:07.608Z,1900
2017-09-01T07:44:07.959Z,1952
2017-09-01T07:45:07.983Z,1964
2017-09-01T07:46:08.328Z,1884
2017-09-01T07:47:08.356Z,2012
2017-09-01T07:48:07.413Z,2036
2017-09-01T07:49:07.749Z,1904
2017-09-01T07:50:08.117Z,2068
2017-09-01T07:51:08.119Z,2116
2017-09-01T07:52:08.177Z,2136
2017-09-01T07:53:08.689Z,2116
2017-09-01T07:54:08.227Z,1808
2017-09-01T07:55:07.562Z,2088
2017-09-01T07:56:07.921Z,2084
2017-09-01T07:57:08.257Z,2004
2017-09-01T07:58:08.265Z,1928
2017-09-01T07:59:07.978Z,1868
2017-09-01T08:00:08.019Z,1804
2017-09-01T08:01:08.338Z,1760
2017-09-01T08:02:08.084Z,1760
2017-09-01T08:03:08.709Z,1736
2017-09-01T08:04:08.087Z,1720
2017-09-01T08:05:08.435Z,1712
2017-09-01T08:06:08.456Z,1624
2017-09-01T08:07:08.479Z,1692
2017-09-01T08:08:08.215Z,1692
2017-09-01T08:09:08.201Z,1676
2017-09-01T08:10:07.937Z,1644
2017-09-01T08:11:08.908Z,1580
2017-09-01T08:12:08.594Z,1528
2017-09-01T08:13:08.630Z,1568
2017-09-01T08:14:08.313Z,1504
2017-09-01T08:15:08.663Z,1428
2017-09-01T08:16:08.375Z,1512
2017-09-01T08:17:08.076Z,1428
2017-09-01T08:18:08.084Z,1356
2017-09-01T08:19:08.530Z,1332
2017-09-01T08:20:08.967Z,1292
2017-09-01T08:21:08.480Z,1360
2017-09-01T08:22:09.229Z,1668
2017-09-01T08:23:08.601Z,1524
2017-09-01T08:24:08.640Z,1276
2017-09-01T08:25:08.964Z,1200
2017-09-01T08:26:08.993Z,1200
2017-09-01T08:27:08.788Z,1096
2017-09-01T08:28:09.098Z,1040
2017-09-01T08:29:09.002Z,988
2017-09-01T08:30:08.790Z,980
2017-09-01T08:31:09.040Z,1040
2017-09-01T08:32:08.816Z,1000
2017-09-01T08:33:09.069Z,1004
2017-09-01T08:34:09.099Z,1180
2017-09-01T08:35:08.477Z,1392
2017-09-01T08:36:09.162Z,1676
2017-09-01T08:37:09.175Z,1916
2017-09-01T08:38:09.199Z,2116
2017-09-01T08:39:08.895Z,2176
2017-09-01T08:40:09.231Z,2240
2017-09-01T08:41:08.616Z,2308
2017-09-01T08:42:09.285Z,2340
2017-09-01T08:43:09.308Z,2324
2017-09-01T08:44:09.000Z,2372
2017-09-01T08:45:09.679Z,2460
2017-09-01T08:46:08.735Z,2328
2017-09-01T08:47:09.401Z,2060
2017-09-01T08:48:09.749Z,1884
2017-09-01T08:49:09.131Z,2016
2017-09-01T08:50:09.478Z,2048
2017-09-01T08:51:09.501Z,1944
2017-09-01T08:52:09.518Z,1768
2017-09-01T08:53:09.539Z,2052
2017-09-01T08:54:09.902Z,2220
2017-09-01T08:55:09.586Z,2300
2017-09-01T08:56:09.936Z,2408
2017-09-01T08:57:08.988Z,2440
2017-09-01T08:58:09.760Z,2440
2017-09-01T08:59:09.357Z,2492
2017-09-01T09:00:10.027Z,2512
2017-09-01T09:01:09.413Z,2508
2017-09-01T09:02:09.749Z,2420
2017-09-01T09:03:09.780Z,2320
2017-09-01T09:04:09.800Z,2212
2017-09-01T09:05:09.831Z,2144
2017-09-01T09:06:09.522Z,1968
2017-09-01T09:07:09.869Z,2048
2017-09-01T09:08:10.224Z,2020
2017-09-01T09:09:09.911Z,1996
2017-09-01T09:10:10.260Z,1988
2017-09-01T09:11:09.643Z,1924
2017-09-01T09:12:09.763Z,1848
2017-09-01T09:13:10.024Z,1828
2017-09-01T09:14:10.044Z,1824
2017-09-01T09:15:10.396Z,1828
2017-09-01T09:16:09.512Z,1840
2017-09-01T09:17:10.127Z,1888
2017-09-01T09:18:10.209Z,1940
2017-09-01T09:19:10.484Z,1976
2017-09-01T09:20:09.867Z,1992
2017-09-01T09:21:10.209Z,2012
2017-09-01T09:22:09.906Z,2028
2017-09-01T09:23:10.257Z,2008
2017-09-01T09:24:09.976Z,1984
2017-09-01T09:25:09.983Z,1992
2017-09-01T09:26:10.324Z,2024
2017-09-01T09:27:10.680Z,2052
2017-09-01T09:28:10.045Z,2052
2017-09-01T09:29:10.080Z,2016
2017-09-01T09:30:10.105Z,1976
2017-09-01T09:31:10.781Z,1916
2017-09-01T09:32:10.469Z,1844
2017-09-01T09:33:10.495Z,1792
2017-09-01T09:34:10.852Z,1780
2017-09-01T09:35:10.543Z,1804
2017-09-01T09:36:10.888Z,1800
2017-09-01T09:37:10.918Z,1748
2017-09-01T09:38:10.042Z,1708
2017-09-01T09:39:10.313Z,1680
2017-09-01T09:40:10.669Z,1664
2017-09-01T09:41:10.688Z,1648
2017-09-01T09:42:10.386Z,1616
2017-09-01T09:43:10.413Z,1580
2017-09-01T09:44:10.114Z,1548
2017-09-01T09:45:10.461Z,1556
2017-09-01T09:46:10.480Z,1596
2017-09-01T09:47:10.504Z,1632
2017-09-01T09:48:10.865Z,1668
2017-09-01T09:49:10.878Z,1724
2017-09-01T09:50:10.253Z,1796
2017-09-01T09:51:11.256Z,1876
2017-09-01T09:52:10.948Z,1924
2017-09-01T09:53:11.352Z,1940
2017-09-01T09:54:10.678Z,1952
2017-09-01T09:55:10.701Z,2016
2017-09-01T09:56:11.383Z,2116
2017-09-01T09:57:11.087Z,2232
2017-09-01T09:58:11.423Z,2352
2017-09-01T09:59:10.814Z,2440
2017-09-01T10:00:11.198Z,2452
2017-09-01T10:01:11.167Z,2320
2017-09-01T10:02:10.564Z,2264
2017-09-01T10:03:10.570Z,2152
2017-09-01T10:04:11.258Z,2088
2017-09-01T10:05:11.036Z,2196
2017-09-01T10:06:11.042Z,2184
2017-09-01T10:07:11.733Z,2192
2017-09-01T10:08:11.428Z,2216
2017-09-01T10:09:11.749Z,2216
2017-09-01T10:10:10.742Z,2220
2017-09-01T10:11:11.414Z,2256
2017-09-01T10:12:11.113Z,2296
2017-09-01T10:13:11.231Z,2284
2017-09-01T10:14:11.264Z,2196
2017-09-01T10:15:11.264Z,2072
2017-09-01T10:16:11.264Z,1916
2017-09-01T10:17:11.236Z,1880
2017-09-01T10:18:12.072Z,2144
2017-09-01T10:19:11.821Z,2276
2017-09-01T10:20:12.144Z,2320
2017-09-01T10:21:12.146Z,2388
2017-09-01T10:22:11.825Z,2420
2017-09-01T10:23:11.843Z,2444
2017-09-01T10:24:11.828Z,2444
2017-09-01T10:25:12.098Z,2448
2017-09-01T10:26:11.133Z,2428
2017-09-01T10:27:11.803Z,2312
2017-09-01T10:28:11.511Z,2328
2017-09-01T10:29:11.535Z,2184
2017-09-01T10:30:11.877Z,2044
2017-09-01T10:31:12.230Z,1960
2017-09-01T10:32:11.603Z,1876
2017-09-01T10:33:12.510Z,1776
2017-09-01T10:34:12.065Z,1668
2017-09-01T10:35:12.131Z,1568
2017-09-01T10:36:12.126Z,1464
2017-09-01T10:37:12.571Z,1352
2017-09-01T10:38:12.580Z,1248
2017-09-01T10:39:11.929Z,1168
2017-09-01T10:40:12.237Z,1128
2017-09-01T10:41:11.930Z,1112
2017-09-01T10:42:12.284Z,1104
2017-09-01T10:43:12.292Z,1056
2017-09-01T10:44:12.645Z,976
2017-09-01T10:45:12.310Z,980
2017-09-01T10:46:11.982Z,996
2017-09-01T10:47:12.715Z,1000
2017-09-01T10:48:12.514Z,1004
2017-09-01T10:49:11.700Z,1016
2017-09-01T10:50:12.046Z,1048
2017-09-01T10:51:12.510Z,1116
2017-09-01T10:52:12.782Z,1208
2017-09-01T10:53:12.643Z,1292
2017-09-01T10:54:14.007Z,1344
2017-09-01T10:55:12.496Z,1384
2017-09-01T10:56:12.191Z,1440
2017-09-01T10:57:12.226Z,1496
2017-09-01T10:58:12.566Z,1524
2017-09-01T10:59:12.266Z,1552
2017-09-01T11:00:12.952Z,1568
2017-09-01T11:01:12.009Z,1580
2017-09-01T11:02:12.667Z,1588
2017-09-01T11:03:13.021Z,1604
2017-09-01T11:04:13.180Z,1684
2017-09-01T11:05:12.739Z,1756
2017-09-01T11:06:12.777Z,1776
2017-09-01T11:07:13.109Z,1784
2017-09-01T11:08:13.132Z,1804
2017-09-01T11:09:12.845Z,1848
2017-09-01T11:10:13.187Z,1900
2017-09-01T11:11:13.211Z,1936
2017-09-01T11:12:12.660Z,1900
2017-09-01T11:13:13.261Z,1892
2017-09-01T11:14:12.962Z,2004
2017-09-01T11:15:12.675Z,2024
2017-09-01T11:16:13.342Z,2012
2017-09-01T11:17:13.034Z,2028
2017-09-01T11:18:12.741Z,2032
2017-09-01T11:19:13.409Z,1984
2017-09-01T11:20:13.106Z,1888
2017-09-01T11:21:13.130Z,1756
2017-09-01T11:22:13.487Z,1604
2017-09-01T11:23:12.865Z,1612
2017-09-01T11:24:13.080Z,1684
2017-09-01T11:25:12.930Z,1832
2017-09-01T11:26:13.288Z,1980
2017-09-01T11:27:12.959Z,2088
2017-09-01T11:28:13.639Z,2144
2017-09-01T11:29:13.328Z,2152
2017-09-01T11:30:13.350Z,2096
2017-09-01T11:31:13.390Z,2008
2017-09-01T11:32:13.085Z,1928
2017-09-01T11:33:13.438Z,1960
2017-09-01T11:34:13.782Z,1988
2017-09-01T11:35:13.160Z,2020
2017-09-01T11:36:13.182Z,2156
2017-09-01T11:37:13.854Z,2148
2017-09-01T11:38:13.562Z,2048
2017-09-01T11:39:13.572Z,1976
2017-09-01T11:40:12.955Z,1916
2017-09-01T11:41:13.954Z,1804
2017-09-01T11:42:13.659Z,1772
2017-09-01T11:43:14.004Z,1824
2017-09-01T11:44:13.382Z,1972
2017-09-01T11:45:13.404Z,2152
2017-09-01T11:46:13.757Z,2288
2017-09-01T11:47:13.776Z,2324
2017-09-01T11:48:14.122Z,2348
2017-09-01T11:49:13.508Z,2400
2017-09-01T11:50:13.847Z,2400
2017-09-01T11:51:14.198Z,2284
2017-09-01T11:52:13.910Z,2240
2017-09-01T11:53:13.925Z,2228
2017-09-01T11:54:13.959Z,2152
2017-09-01T11:55:14.295Z,2068
2017-09-01T11:56:14.423Z,1968
2017-09-01T11:57:14.449Z,1904
2017-09-01T11:58:14.452Z,1880
2017-09-01T11:59:14.077Z,1908
2017-09-01T12:00:13.773Z,1940
2017-09-01T12:01:14.233Z,1964
2017-09-01T12:02:14.143Z,1984
2017-09-01T12:03:13.851Z,2004
2017-09-01T12:04:14.237Z,2004
2017-09-01T12:05:13.904Z,1992
2017-09-01T12:06:13.919Z,1960
2017-09-01T12:07:14.045Z,1928
2017-09-01T12:08:14.729Z,1900
2017-09-01T12:09:14.225Z,1884
2017-09-01T12:10:14.220Z,1868
2017-09-01T12:11:14.374Z,1852
2017-09-01T12:12:14.543Z,1808
2017-09-01T12:13:14.857Z,1760
2017-09-01T12:14:14.212Z,1728
2017-09-01T12:15:14.146Z,1708
2017-09-01T12:16:14.678Z,1716
2017-09-01T12:17:15.005Z,1768
2017-09-01T12:18:15.003Z,1824
2017-09-01T12:19:14.652Z,1884
2017-09-01T12:20:15.000Z,1952
2017-09-01T12:21:14.686Z,1992
2017-09-01T12:22:14.221Z,1848
2017-09-01T12:23:14.751Z,1668
2017-09-01T12:24:14.751Z,1660
2017-09-01T12:25:15.076Z,1704
2017-09-01T12:26:15.076Z,1712
2017-09-01T12:27:15.193Z,1676
2017-09-01T12:28:14.694Z,1612
2017-09-01T12:29:14.503Z,1540
2017-09-01T12:30:14.853Z,1464
2017-09-01T12:31:14.863Z,1420
2017-09-01T12:32:15.220Z,1416
2017-09-01T12:33:15.004Z,1436
2017-09-01T12:34:14.938Z,1464
2017-09-01T12:35:15.062Z,1480
2017-09-01T12:36:14.987Z,1468
2017-09-01T12:37:14.689Z,1440
2017-09-01T12:38:15.362Z,1408
2017-09-01T12:39:15.060Z,1372
2017-09-01T12:40:15.418Z,1332
2017-09-01T12:41:14.802Z,1276
2017-09-01T12:42:15.146Z,1228
2017-09-01T12:43:15.167Z,1204
2017-09-01T12:44:14.867Z,1196
2017-09-01T12:45:15.213Z,1208
2017-09-01T12:46:15.570Z,1248
2017-09-01T12:47:15.594Z,1320
2017-09-01T12:48:15.285Z,1420
2017-09-01T12:49:15.644Z,1496
2017-09-01T12:50:15.026Z,1456
2017-09-01T12:51:15.689Z,1408
2017-09-01T12:52:15.712Z,1416
2017-09-01T12:53:15.408Z,1536
2017-09-01T12:54:15.114Z,1696
2017-09-01T12:55:15.782Z,1724
2017-09-01T12:56:15.488Z,1764
2017-09-01T12:57:15.513Z,1840
2017-09-01T12:58:15.540Z,1980
2017-09-01T12:59:15.889Z,2152
2017-09-01T13:00:15.921Z,2308
2017-09-01T13:01:15.624Z,2428
2017-09-01T13:02:14.987Z,2524
2017-09-01T13:03:15.013Z,2592
2017-09-01T13:04:15.693Z,2600
2017-09-01T13:05:15.061Z,2612
2017-09-01T13:06:15.744Z,2644
2017-09-01T13:07:16.075Z,2668
2017-09-01T13:08:15.788Z,2672
2017-09-01T13:09:16.134Z,2644
2017-09-01T13:10:15.510Z,2536
2017-09-01T13:11:15.886Z,2396
2017-09-01T13:12:16.231Z,2200
2017-09-01T13:13:15.912Z,1916
2017-09-01T13:14:15.931Z,1616
2017-09-01T13:15:16.258Z,1480
2017-09-01T13:16:16.312Z,1452
2017-09-01T13:17:16.010Z,1376
2017-09-01T13:18:16.037Z,1288
2017-09-01T13:19:16.054Z,1284
2017-09-01T13:20:16.413Z,1440
2017-09-01T13:21:15.785Z,1564
2017-09-01T13:22:16.455Z,1736
2017-09-01T13:23:16.163Z,1612
2017-09-01T13:24:16.193Z,1380
2017-09-01T13:25:15.884Z,1364
2017-09-01T13:26:15.905Z,1468
2017-09-01T13:27:15.930Z,1648
2017-09-01T13:28:15.957Z,1856
2017-09-01T13:29:16.310Z,2148
2017-09-01T13:30:16.656Z,2304
2017-09-01T13:31:16.043Z,2400
2017-09-01T13:32:16.059Z,2436
2017-09-01T13:33:16.089Z,2448
2017-09-01T13:34:16.432Z,2424
2017-09-01T13:35:16.565Z,2372
2017-09-01T13:36:16.850Z,2280
2017-09-01T13:37:16.921Z,2168
2017-09-01T13:38:16.202Z,2064
2017-09-01T13:39:16.982Z,2020
2017-09-01T13:40:16.680Z,1964
2017-09-01T13:41:17.045Z,1940
2017-09-01T13:42:16.425Z,1892
2017-09-01T13:43:16.885Z,1828
2017-09-01T13:44:16.884Z,1736
2017-09-01T13:45:16.888Z,1760
2017-09-01T13:46:17.198Z,1788
2017-09-01T13:47:17.196Z,1820
2017-09-01T13:48:16.872Z,1868
2017-09-01T13:49:17.022Z,1896
2017-09-01T13:50:17.032Z,1880
2017-09-01T13:51:17.351Z,1828